Time;durP1;ratioP1;P1;durP2;ratioP2;P2;SDS_P1;SDS_P2;PMS_P1;PMS_P2;Temp;Humidity;BMP_temperature;BMP_pressure;BME280_temperature;BME280_humidity;BME280_pressure;Samples;Min_cycle;Max_cycle;Signal;HPM_P1;HPM_P2
2022/03/14 00:01:32;;;;;;;18.15;8.77;;;;;;;5.07;36.15;96304.66;5093918;28;20043;-76
2022/03/14 00:03:58;;;;;;;15.43;8.18;;;;;;;5.05;36.49;96306.81;5092799;28;20052;-75
2022/03/14 00:06:26;;;;;;;16.33;8.23;;;;;;;5.05;36.50;96306.81;5092802;28;20123;-75
2022/03/14 00:08:54;;;;;;;15.70;8.00;;;;;;;5.02;36.36;96313.59;5095572;28;20193;-75
2022/03/14 00:11:23;;;;;;;18.52;8.98;;;;;;;5.02;36.63;96323.59;5096026;28;20048;-75
2022/03/14 00:13:50;;;;;;;16.95;8.40;;;;;;;4.99;36.13;96330.34;5108174;28;20063;-75
2022/03/14 00:16:23;;;;;;;18.65;9.68;;;;;;;4.95;36.81;96330.09;5115190;28;20050;-76
2022/03/14 00:18:51;;;;;;;14.52;8.57;;;;;;;4.89;37.30;96325.81;5116415;28;20114;-75
2022/03/14 00:21:18;;;;;;;16.58;8.30;;;;;;;4.84;37.40;96336.66;5114706;28;20040;-76
2022/03/14 00:23:45;;;;;;;20.63;9.48;;;;;;;4.80;37.24;96332.91;5116409;28;20052;-76
2022/03/14 00:26:11;;;;;;;20.70;9.60;;;;;;;4.77;38.24;96341.56;5114668;28;20058;-76
2022/03/14 00:28:42;;;;;;;18.15;8.75;;;;;;;4.72;37.74;96338.91;5116001;28;20036;-76
2022/03/14 00:31:09;;;;;;;17.10;8.85;;;;;;;4.65;37.30;96346.53;5096962;28;20044;-76
2022/03/14 00:33:36;;;;;;;20.38;9.57;;;;;;;4.60;37.94;96344.66;5095518;28;20044;-75
2022/03/14 00:36:04;;;;;;;17.02;9.10;;;;;;;4.57;38.92;96344.41;5094055;28;20048;-76
2022/03/14 00:38:31;;;;;;;18.90;9.38;;;;;;;4.52;39.99;96355.22;5094637;28;20123;-76
2022/03/14 00:40:58;;;;;;;16.95;8.65;;;;;;;4.50;39.02;96354.72;5095017;28;20127;-76
2022/03/14 00:43:24;;;;;;;20.60;9.75;;;;;;;4.48;38.52;96357.66;5102181;28;20043;-76
2022/03/14 00:45:52;;;;;;;17.35;9.40;;;;;;;4.40;39.88;96356.38;5114960;28;20055;-76
2022/03/14 00:48:19;;;;;;;17.98;9.05;;;;;;;4.33;39.91;96361.28;5112549;28;20078;-75
2022/03/14 00:50:46;;;;;;;17.67;9.35;;;;;;;4.24;40.36;96362.94;5114456;28;20120;-76
2022/03/14 00:53:12;;;;;;;18.98;9.27;;;;;;;4.21;39.45;96365.38;5113132;28;20127;-74
2022/03/14 00:55:39;;;;;;;21.75;10.40;;;;;;;4.16;39.51;96371.56;5114200;28;20542;-75
2022/03/14 00:58:05;;;;;;;20.73;10.38;;;;;;;4.12;39.63;96375.91;5113502;28;20043;-75
2022/03/14 01:00:32;;;;;;;22.30;10.68;;;;;;;4.10;39.97;96383.47;5101639;28;20040;-75
2022/03/14 01:03:00;;;;;;;20.67;10.30;;;;;;;4.04;40.10;96374.59;5095214;28;20048;-75
2022/03/14 01:05:26;;;;;;;20.33;9.95;;;;;;;4.01;40.92;96380.53;5091804;28;20043;-76
2022/03/14 01:07:53;;;;;;;19.63;10.05;;;;;;;3.97;40.64;96401.03;5094320;28;20055;-75
2022/03/14 01:10:22;;;;;;;19.27;10.13;;;;;;;3.90;41.56;96400.50;5092952;28;20044;-75
2022/03/14 01:12:49;;;;;;;20.95;10.40;;;;;;;3.78;41.24;96408.91;5093479;28;20055;-75
2022/03/14 01:15:16;;;;;;;18.27;10.10;;;;;;;3.64;41.59;96415.91;5091434;28;20044;-75
2022/03/14 01:17:43;;;;;;;24.08;11.05;;;;;;;3.47;42.15;96421.59;5092757;28;20051;-75
2022/03/14 01:20:12;;;;;;;20.73;10.60;;;;;;;3.42;42.62;96423.50;5091427;28;20050;-76
2022/03/14 01:22:39;;;;;;;25.88;10.88;;;;;;;3.32;43.69;96418.91;5091980;28;20517;-75
2022/03/14 01:25:06;;;;;;;23.80;10.25;;;;;;;3.26;44.14;96410.03;5091280;28;20048;-75
2022/03/14 01:27:33;;;;;;;22.90;10.63;;;;;;;3.25;44.02;96413.00;5091881;28;20055;-75
2022/03/14 01:29:59;;;;;;;18.17;9.95;;;;;;;3.26;43.24;96417.31;5092690;28;20089;-75
2022/03/14 01:32:26;;;;;;;21.77;10.50;;;;;;;3.21;43.99;96410.03;5091789;28;20066;-75
2022/03/14 01:34:52;;;;;;;22.20;10.27;;;;;;;3.22;43.98;96424.31;5093364;28;20048;-75
2022/03/14 01:37:20;;;;;;;21.77;10.65;;;;;;;3.23;43.30;96432.09;5091297;28;20495;-76
2022/03/14 01:39:47;;;;;;;22.23;10.82;;;;;;;3.23;43.65;96425.91;5092799;28;20126;-76
2022/03/14 01:42:17;;;;;;;24.30;10.60;;;;;;;3.22;43.45;96433.19;5090936;28;20093;-75
2022/03/14 01:44:44;;;;;;;19.88;10.25;;;;;;;3.19;43.38;96436.41;5109534;28;20093;-75
2022/03/14 01:47:11;;;;;;;18.70;9.85;;;;;;;3.13;43.55;96440.16;5111859;28;20044;-77
2022/03/14 01:49:37;;;;;;;22.90;10.70;;;;;;;3.15;43.44;96448.78;5112730;28;20048;-76
2022/03/14 01:52:05;;;;;;;20.90;10.38;;;;;;;3.13;43.46;96445.53;5112384;28;20429;-75
2022/03/14 01:54:34;;;;;;;22.00;9.63;;;;;;;3.13;43.49;96454.44;5094022;28;20054;-77
2022/03/14 01:57:01;;;;;;;25.80;10.65;;;;;;;3.16;43.87;96458.47;5113007;28;20054;-75
2022/03/14 01:59:29;;;;;;;20.73;10.02;;;;;;;3.19;43.78;96459.84;5107113;28;20054;-76
2022/03/14 02:01:56;;;;;;;20.58;10.35;;;;;;;3.18;43.57;96459.00;5092454;28;20040;-76
2022/03/14 02:04:22;;;;;;;20.25;10.85;;;;;;;3.18;44.06;96467.06;5090950;28;20051;-76
2022/03/14 02:06:49;;;;;;;20.30;10.10;;;;;;;3.16;43.43;96469.25;5092450;28;20135;-76
2022/03/14 02:09:16;;;;;;;19.10;10.38;;;;;;;3.14;43.75;96466.81;5091324;28;20047;-75
2022/03/14 02:11:54;;;;;;;22.85;10.80;;;;;;;3.13;43.82;96470.59;5091724;28;20586;-75
2022/03/14 02:14:20;;;;;;;19.48;9.90;;;;;;;3.13;44.19;96477.84;5104889;28;20043;-75
2022/03/14 02:16:47;;;;;;;20.83;10.35;;;;;;;3.11;45.09;96466.53;5111492;28;20063;-76
2022/03/14 02:19:14;;;;;;;21.45;10.25;;;;;;;3.10;44.45;96468.44;5111747;28;20067;-75
2022/03/14 02:21:42;;;;;;;19.30;10.25;;;;;;;3.14;44.90;96474.09;5111161;28;20658;-77
2022/03/14 02:24:09;;;;;;;21.95;11.15;;;;;;;3.16;44.48;96480.00;5111499;28;20043;-75
2022/03/14 02:26:39;;;;;;;19.45;9.52;;;;;;;3.12;44.53;96490.47;5111192;28;20044;-74
2022/03/14 02:29:06;;;;;;;23.02;10.82;;;;;;;3.12;44.86;96492.38;5110409;28;20052;-75
2022/03/14 02:31:36;;;;;;;22.80;11.65;;;;;;;3.13;45.49;96496.66;5090648;28;20039;-76
2022/03/14 02:34:03;;;;;;;24.27;11.35;;;;;;;3.09;45.08;96501.78;5090331;28;20044;-75
2022/03/14 02:36:29;;;;;;;22.63;11.50;;;;;;;3.00;45.62;96511.44;5091505;28;20062;-75
2022/03/14 02:38:57;;;;;;;23.60;11.55;;;;;;;2.95;46.09;96518.72;5090086;28;20044;-76
2022/03/14 02:41:24;;;;;;;20.23;10.40;;;;;;;2.93;46.82;96523.56;5090381;28;20044;-75
2022/03/14 02:43:51;;;;;;;22.70;11.05;;;;;;;2.97;47.09;96527.31;5099481;28;20123;-75
2022/03/14 02:46:17;;;;;;;23.40;11.40;;;;;;;3.01;47.03;96537.28;5110657;28;20058;-75
2022/03/14 02:48:44;;;;;;;22.25;11.48;;;;;;;3.03;46.64;96547.78;5110047;28;20039;-75
2022/03/14 02:51:10;;;;;;;25.23;11.45;;;;;;;3.05;46.71;96551.00;5109898;28;20690;-74
2022/03/14 02:53:37;;;;;;;25.08;11.77;;;;;;;3.06;46.97;96553.44;5110444;28;20051;-74
2022/03/14 02:56:05;;;;;;;29.25;11.20;;;;;;;3.10;47.09;96553.72;5110370;28;20051;-74
2022/03/14 02:58:33;;;;;;;26.15;11.88;;;;;;;3.09;47.37;96554.81;5110673;28;20067;-77
2022/03/14 03:01:00;;;;;;;28.65;13.07;;;;;;;3.10;47.76;96556.41;5093968;28;20075;-75
2022/03/14 03:03:27;;;;;;;24.35;11.93;;;;;;;3.10;48.09;96559.09;5089390;28;20383;-75
2022/03/14 03:05:54;;;;;;;30.08;13.52;;;;;;;3.12;48.30;96573.09;5089221;28;20044;-74
2022/03/14 03:08:22;;;;;;;24.55;12.68;;;;;;;3.16;48.65;96576.06;5089327;28;20055;-75
2022/03/14 03:10:49;;;;;;;26.13;12.18;;;;;;;3.19;47.48;96587.13;5089181;28;20048;-75
2022/03/14 03:13:17;;;;;;;29.95;12.98;;;;;;;3.22;46.97;96594.63;5089631;28;20040;-75
2022/03/14 03:15:44;;;;;;;28.40;12.73;;;;;;;3.26;47.36;96603.81;5089848;28;20052;-75
2022/03/14 03:18:11;;;;;;;25.52;12.38;;;;;;;3.30;47.65;96601.41;5089788;28;20410;-75
2022/03/14 03:20:38;;;;;;;24.23;11.73;;;;;;;3.29;47.49;96614.06;5089970;28;20044;-75
2022/03/14 03:23:04;;;;;;;27.10;12.20;;;;;;;3.35;47.60;96610.31;5089827;28;20048;-76
2022/03/14 03:25:31;;;;;;;25.35;11.48;;;;;;;3.39;47.60;96616.78;5090431;28;20036;-75
2022/03/14 03:27:57;;;;;;;21.80;10.98;;;;;;;3.46;47.98;96619.22;5089833;28;20048;-75
2022/03/14 03:30:25;;;;;;;22.80;11.00;;;;;;;3.42;47.27;96625.38;5089770;28;20051;-76
2022/03/14 03:32:52;;;;;;;20.00;10.07;;;;;;;3.47;47.35;96623.50;5091190;28;20051;-76
2022/03/14 03:35:19;;;;;;;19.83;10.57;;;;;;;3.50;47.18;96631.06;5091532;28;20040;-75
2022/03/14 03:37:45;;;;;;;22.02;10.77;;;;;;;3.52;47.36;96636.19;5093502;28;20447;-75
2022/03/14 03:40:12;;;;;;;22.73;11.65;;;;;;;3.56;47.67;96637.28;5095158;28;20048;-76
2022/03/14 03:42:39;;;;;;;20.65;10.13;;;;;;;3.61;47.80;96650.75;5092268;28;20040;-76
2022/03/14 03:45:07;;;;;;;21.92;11.40;;;;;;;3.61;48.04;96654.25;5095224;28;20048;-76
2022/03/14 03:47:35;;;;;;;49.08;14.90;;;;;;;3.59;48.79;96663.66;5092634;28;20273;-76
2022/03/14 03:50:02;;;;;;;21.35;10.88;;;;;;;3.59;48.63;96663.66;5091407;28;20414;-78
2022/03/14 03:52:28;;;;;;;22.15;10.60;;;;;;;3.57;49.24;96671.19;5129727;28;20069;-75
2022/03/14 03:54:55;;;;;;;18.63;10.38;;;;;;;3.53;49.21;96668.22;5133471;28;20158;-76
2022/03/14 03:57:21;;;;;;;20.45;10.38;;;;;;;3.53;49.07;96675.50;5134688;28;20043;-76
2022/03/14 03:59:48;;;;;;;19.77;9.73;;;;;;;3.53;49.73;96675.50;5129253;28;20537;-76
2022/03/14 04:02:19;;;;;;;22.60;10.48;;;;;;;3.63;49.82;96675.53;5114026;28;20052;-77
2022/03/14 04:04:47;;;;;;;21.42;10.00;;;;;;;3.74;51.77;96693.31;5112378;28;20054;-76
2022/03/14 04:07:16;;;;;;;25.55;10.05;;;;;;;4.16;52.06;96684.22;5111303;28;20477;-75
2022/03/14 04:09:42;;;;;;;22.27;8.95;;;;;;;4.64;51.86;96690.94;5111890;28;20051;-76
2022/03/14 04:12:10;;;;;;;25.67;10.60;;;;;;;4.88;51.64;96696.56;5118910;28;20047;-76
2022/03/14 04:14:38;;;;;;;20.45;9.07;;;;;;;5.12;51.27;96706.78;5131083;28;20485;-75
2022/03/14 04:17:07;;;;;;;23.02;9.43;;;;;;;5.30;51.04;96719.69;5129648;28;20047;-76
2022/03/14 04:19:34;;;;;;;20.17;9.48;;;;;;;5.47;51.01;96725.56;5131516;28;20379;-76
2022/03/14 04:22:02;;;;;;;22.67;9.70;;;;;;;5.62;51.12;96726.59;5130817;27;20593;-76
2022/03/14 04:24:29;;;;;;;25.30;11.05;;;;;;;5.67;51.89;96735.47;5134575;27;20050;-75
2022/03/14 04:26:55;;;;;;;21.17;9.60;;;;;;;5.72;52.25;96748.97;5133966;27;20050;-75
2022/03/14 04:29:22;;;;;;;25.30;10.15;;;;;;;5.75;52.84;96758.44;5131096;27;20051;-76
2022/03/14 04:31:48;;;;;;;22.00;10.55;;;;;;;5.87;53.34;96756.19;5113724;28;20050;-76
2022/03/14 04:34:15;;;;;;;24.67;10.63;;;;;;;5.96;53.78;96765.38;5112962;28;20044;-76
2022/03/14 04:36:41;;;;;;;28.13;10.75;;;;;;;6.04;53.96;96771.28;5113415;28;20430;-76
2022/03/14 04:39:10;;;;;;;25.45;10.95;;;;;;;6.08;54.27;96783.97;5112726;28;20044;-76
2022/03/14 04:41:39;;;;;;;24.20;10.48;;;;;;;6.11;54.28;96778.00;5119220;27;20039;-76
2022/03/14 04:44:06;;;;;;;24.33;10.52;;;;;;;6.19;54.16;96784.72;5132349;27;20050;-75
2022/03/14 04:46:34;;;;;;;32.78;11.85;;;;;;;6.22;54.39;96795.00;5133655;27;20043;-75
2022/03/14 04:49:01;;;;;;;25.08;11.15;;;;;;;6.26;54.60;96802.28;5133312;27;20039;-75
2022/03/14 04:51:27;;;;;;;26.40;11.88;;;;;;;6.29;54.66;96811.72;5133445;27;20560;-78
2022/03/14 04:53:54;;;;;;;31.13;11.27;;;;;;;6.33;54.71;96820.88;5133635;27;20051;-75
2022/03/14 04:56:21;;;;;;;26.08;11.65;;;;;;;6.41;54.94;96831.09;5128897;27;20063;-76
2022/03/14 04:58:48;;;;;;;25.67;11.75;;;;;;;6.41;54.81;96838.41;5113100;28;20043;-76
2022/03/14 05:01:14;;;;;;;29.58;11.93;;;;;;;6.40;54.91;96850.31;5111952;28;20043;-76
2022/03/14 05:03:41;;;;;;;25.98;12.23;;;;;;;6.37;55.31;96849.00;5113355;28;20051;-75
2022/03/14 05:06:11;;;;;;;27.50;12.00;;;;;;;6.33;55.01;96847.94;5111624;27;20552;-75
2022/03/14 05:08:38;;;;;;;30.98;12.40;;;;;;;6.39;54.87;96854.94;5113404;28;20043;-74
2022/03/14 05:11:04;;;;;;;25.40;11.07;;;;;;;6.35;54.85;96864.69;5111755;27;20066;-74
2022/03/14 05:13:32;;;;;;;37.65;13.32;;;;;;;6.19;55.32;96863.94;5132864;27;20043;-75
2022/03/14 05:15:59;;;;;;;34.58;12.80;;;;;;;6.16;55.45;96871.78;5132765;27;20050;-74
2022/03/14 05:18:25;;;;;;;30.88;13.07;;;;;;;6.08;55.88;96880.50;5131997;27;20046;-74
2022/03/14 05:20:52;;;;;;;29.23;12.75;;;;;;;6.04;56.19;96874.81;5132600;27;20047;-76
2022/03/14 05:23:18;;;;;;;31.83;13.05;;;;;;;5.97;56.25;96880.53;5131383;27;20039;-75
2022/03/14 05:25:45;;;;;;;26.92;11.80;;;;;;;5.94;56.30;96886.47;5132933;27;20529;-76
2022/03/14 05:28:11;;;;;;;30.10;13.00;;;;;;;5.88;56.56;96898.34;5131352;27;20045;-76
2022/03/14 05:30:39;;;;;;;29.58;13.40;;;;;;;5.96;56.18;96910.53;5120420;27;20457;-76
2022/03/14 05:33:06;;;;;;;23.65;11.90;;;;;;;5.93;56.39;96920.00;5113532;28;20051;-76
2022/03/14 05:35:32;;;;;;;30.98;13.73;;;;;;;5.98;56.29;96925.38;5117083;28;20123;-76
2022/03/14 05:37:59;;;;;;;27.80;13.00;;;;;;;5.93;56.52;96933.50;5116590;28;20149;-76
2022/03/14 05:40:26;;;;;;;25.63;12.40;;;;;;;6.04;56.39;96930.78;5114154;28;20044;-75
2022/03/14 05:42:53;;;;;;;25.15;12.52;;;;;;;6.06;56.23;96942.16;5114370;28;20047;-76
2022/03/14 05:45:21;;;;;;;29.50;13.18;;;;;;;6.16;56.17;96942.09;5112732;28;20050;-75
2022/03/14 05:47:50;;;;;;;27.45;12.82;;;;;;;6.19;55.93;96941.56;5114962;28;20051;-75
2022/03/14 05:50:16;;;;;;;33.63;15.05;;;;;;;6.10;56.73;96954.03;5111234;28;20460;-75
2022/03/14 05:52:43;;;;;;;30.75;13.23;;;;;;;6.16;56.52;96963.72;5112105;28;20038;-75
2022/03/14 05:55:10;;;;;;;28.00;13.23;;;;;;;6.26;56.27;96969.94;5111276;28;20035;-75
2022/03/14 05:57:36;;;;;;;28.67;13.45;;;;;;;6.39;56.30;96990.19;5112519;28;20050;-75
2022/03/14 06:00:04;;;;;;;30.05;13.98;;;;;;;6.41;56.24;96987.19;5102785;28;20395;-75
2022/03/14 06:02:30;;;;;;;36.33;14.88;;;;;;;6.52;56.20;97000.44;5091476;28;20040;-76
2022/03/14 06:04:58;;;;;;;34.47;15.15;;;;;;;6.64;55.95;97002.00;5091522;28;20177;-75
2022/03/14 06:07:24;;;;;;;28.35;14.52;;;;;;;6.79;56.07;96996.53;5091164;28;20044;-75
2022/03/14 06:09:51;;;;;;;31.38;14.23;;;;;;;6.85;55.46;96998.13;5092016;28;20048;-75
2022/03/14 06:12:25;;;;;;;32.20;14.88;;;;;;;6.85;55.40;96992.72;5104036;28;20050;-75
2022/03/14 06:14:53;;;;;;;31.63;14.30;;;;;;;6.99;55.58;97003.72;5112768;28;20113;-74
2022/03/14 06:17:21;;;;;;;28.65;13.65;;;;;;;7.11;54.93;97006.13;5110970;28;20071;-74
2022/03/14 06:19:47;;;;;;;30.30;13.77;;;;;;;7.22;54.71;97015.81;5112114;28;20131;-75
2022/03/14 06:22:16;;;;;;;34.97;14.55;;;;;;;7.32;54.59;97019.25;5110341;28;20047;-75
2022/03/14 06:24:46;;;;;;;33.78;14.50;;;;;;;7.21;54.88;97030.44;5111803;28;20697;-76
2022/03/14 06:27:12;;;;;;;30.88;14.27;;;;;;;7.27;55.04;97026.63;5111490;28;20044;-75
2022/03/14 06:29:39;;;;;;;36.03;15.70;;;;;;;7.17;55.62;97032.09;5106589;28;20043;-74
2022/03/14 06:32:06;;;;;;;33.38;15.55;;;;;;;7.27;55.91;97035.53;5099681;28;20043;-74
2022/03/14 06:34:33;;;;;;;41.70;16.48;;;;;;;7.45;55.65;97039.50;5108040;28;20051;-76
2022/03/14 06:36:59;;;;;;;32.20;14.57;;;;;;;7.34;56.34;97046.06;5109420;28;20164;-75
2022/03/14 06:39:27;;;;;;;29.35;14.07;;;;;;;7.32;56.92;97042.84;5107729;28;20126;-75
2022/03/14 06:41:54;;;;;;;39.35;14.93;;;;;;;7.36;56.97;97052.03;5109006;28;20109;-75
2022/03/14 06:44:22;;;;;;;33.22;14.85;;;;;;;7.32;57.31;97045.53;5108315;27;20545;-76
2022/03/14 06:46:49;;;;;;;30.35;14.23;;;;;;;7.47;57.52;97050.88;5115887;28;20043;-76
2022/03/14 06:49:16;;;;;;;31.30;14.93;;;;;;;7.48;57.87;97049.78;5116088;28;20052;-75
2022/03/14 06:51:42;;;;;;;30.42;14.93;;;;;;;7.57;57.84;97053.53;5128576;27;20683;-76
2022/03/14 06:54:09;;;;;;;28.58;15.02;;;;;;;7.69;58.07;97060.50;5136965;27;20084;-76
2022/03/14 06:56:38;;;;;;;30.88;14.65;;;;;;;7.77;57.85;97073.44;5132908;27;20043;-74
2022/03/14 06:59:04;;;;;;;34.47;14.45;;;;;;;7.95;57.65;97070.03;5135146;27;20047;-75
2022/03/14 07:01:34;;;;;;;35.28;15.40;;;;;;;8.05;57.45;97069.97;5134046;27;20046;-77
2022/03/14 07:04:02;;;;;;;27.55;14.52;;;;;;;8.10;57.35;97083.50;5134128;27;20043;-76
2022/03/14 07:06:31;;;;;;;23.92;14.15;;;;;;;8.07;58.05;97092.19;5131913;27;20065;-76
2022/03/14 07:08:58;;;;;;;27.98;14.15;;;;;;;8.17;58.22;97098.63;5132546;28;20035;-76
2022/03/14 07:11:25;;;;;;;25.98;14.70;;;;;;;8.41;58.07;97094.09;5129709;28;20043;-76
2022/03/14 07:13:53;;;;;;;21.20;12.73;;;;;;;8.52;58.47;97106.47;5132379;28;20043;-76
2022/03/14 07:16:20;;;;;;;21.23;11.38;;;;;;;8.58;58.75;97107.25;5130434;28;20043;-76
2022/03/14 07:18:47;;;;;;;17.45;10.32;;;;;;;8.72;59.01;97112.78;5130686;28;20058;-76
2022/03/14 07:21:13;;;;;;;20.40;10.27;;;;;;;9.00;58.63;97111.94;5130178;28;20039;-75
2022/03/14 07:23:40;;;;;;;17.50;10.48;;;;;;;8.99;58.56;97115.78;5129875;28;20062;-76
2022/03/14 07:26:06;;;;;;;17.17;8.35;;;;;;;8.86;59.40;97122.69;5129884;28;20055;-76
2022/03/14 07:28:34;;;;;;;15.40;8.18;;;;;;;9.01;59.55;97127.16;5130139;28;20043;-75
2022/03/14 07:31:01;;;;;;;16.17;8.32;;;;;;;9.00;59.50;97122.81;5114764;28;20100;-75
2022/03/14 07:33:29;;;;;;;17.35;8.85;;;;;;;8.91;60.44;97129.97;5107923;28;20513;-75
2022/03/14 07:35:55;;;;;;;17.52;9.50;;;;;;;9.25;59.94;97127.16;5108855;28;20467;-79
2022/03/14 07:38:22;;;;;;;11.63;6.82;;;;;;;9.82;58.25;97129.94;5108578;28;20058;-77
2022/03/14 07:40:49;;;;;;;13.70;6.60;;;;;;;9.62;59.02;97134.56;5110044;28;20059;-74
2022/03/14 07:43:16;;;;;;;12.82;6.47;;;;;;;10.02;57.99;97137.78;5108341;28;20661;-76
2022/03/14 07:45:42;;;;;;;9.63;5.75;;;;;;;10.17;57.68;97131.31;5110286;28;20646;-76
2022/03/14 07:48:10;;;;;;;14.25;6.20;;;;;;;10.59;56.53;97146.69;5110687;28;20047;-75
2022/03/14 07:50:37;;;;;;;8.30;5.38;;;;;;;11.21;55.14;97146.41;5107251;28;20035;-75
2022/03/14 07:53:04;;;;;;;9.18;5.22;;;;;;;11.70;52.96;97147.59;5091608;28;20138;-76
2022/03/14 07:55:30;;;;;;;7.45;4.78;;;;;;;11.56;53.82;97163.97;5090950;28;20516;-77
2022/03/14 07:57:57;;;;;;;7.95;4.90;;;;;;;12.10;52.25;97154.09;5093704;28;20074;-75
2022/03/14 08:00:23;;;;;;;8.35;5.22;;;;;;;11.62;52.52;97168.22;5092762;28;20044;-74
2022/03/14 08:02:51;;;;;;;9.05;4.95;;;;;;;12.05;52.33;97176.03;5092648;28;20771;-76
2022/03/14 08:05:24;;;;;;;7.55;4.97;;;;;;;12.04;52.32;97168.97;5090293;28;20051;-76
2022/03/14 08:07:51;;;;;;;6.35;4.18;;;;;;;12.58;50.80;97172.66;5091470;28;20499;-74
2022/03/14 08:10:19;;;;;;;6.70;3.88;;;;;;;12.78;48.94;97177.56;5093943;28;20132;-75
2022/03/14 08:12:47;;;;;;;8.73;4.18;;;;;;;13.28;48.73;97173.88;5109723;28;20055;-76
2022/03/14 08:15:19;;;;;;;15.70;4.15;;;;;;;14.14;47.98;97170.53;5075035;28;20052;-76
2022/03/14 08:17:45;;;;;;;5.70;3.47;;;;;;;14.93;45.29;97168.56;5074582;28;20068;-75
2022/03/14 08:20:12;;;;;;;3.70;2.75;;;;;;;14.78;43.94;97176.22;5075788;28;20052;-75
2022/03/14 08:22:40;;;;;;;9.82;3.97;;;;;;;14.49;44.63;97185.09;5074195;28;20068;-75
2022/03/14 08:25:07;;;;;;;10.73;4.88;;;;;;;14.22;44.59;97193.59;5073077;28;20056;-75
2022/03/14 08:27:34;;;;;;;6.85;3.38;;;;;;;13.42;46.12;97198.41;5073496;28;20045;-75
2022/03/14 08:30:01;;;;;;;11.32;4.43;;;;;;;12.52;48.07;97201.19;5080660;28;20051;-75
2022/03/14 08:32:27;;;;;;;9.00;3.38;;;;;;;12.74;48.63;97198.47;5092306;28;20105;-75
2022/03/14 08:34:54;;;;;;;10.60;4.07;;;;;;;13.05;46.89;97208.63;5080844;28;20054;-76
2022/03/14 08:37:21;;;;;;;18.63;3.60;;;;;;;13.30;46.75;97205.25;5091836;28;20040;-74
2022/03/14 08:39:49;;;;;;;12.15;3.38;;;;;;;13.16;46.18;97209.97;5092649;28;20052;-75
2022/03/14 08:42:16;;;;;;;7.80;3.15;;;;;;;13.42;45.85;97215.63;5092934;28;20605;-75
2022/03/14 08:44:42;;;;;;;7.43;3.10;;;;;;;13.36;45.96;97213.31;5092683;28;20048;-75
2022/03/14 08:47:09;;;;;;;8.48;3.20;;;;;;;13.77;44.86;97213.78;5092312;28;20054;-74
2022/03/14 08:49:36;;;;;;;10.15;6.85;;;;;;;14.07;44.24;97211.31;5091939;28;20044;-75
2022/03/14 08:52:02;;;;;;;9.88;4.15;;;;;;;14.36;43.47;97219.72;5106292;28;20044;-75
2022/03/14 08:54:29;;;;;;;4.93;2.17;;;;;;;14.65;44.08;97212.81;5112257;28;20051;-75
2022/03/14 08:56:59;;;;;;;13.45;3.03;;;;;;;15.18;41.99;97228.06;5113578;28;20040;-74
2022/03/14 08:59:25;;;;;;;5.28;2.15;;;;;;;15.42;41.27;97226.72;5114311;28;20054;-75
2022/03/14 09:01:54;;;;;;;7.15;3.70;;;;;;;15.78;40.46;97223.53;5115611;28;20040;-76
2022/03/14 09:04:20;;;;;;;7.00;2.90;;;;;;;15.76;40.12;97226.59;5116942;28;20506;-77
2022/03/14 09:06:47;;;;;;;6.28;2.58;;;;;;;14.63;41.73;97234.28;5116655;28;20055;-76
2022/03/14 09:09:13;;;;;;;7.10;3.00;;;;;;;15.02;43.04;97235.19;5116164;28;20047;-76
2022/03/14 09:11:40;;;;;;;5.57;2.40;;;;;;;15.16;41.32;97235.03;5121085;27;20406;-74
2022/03/14 09:14:08;;;;;;;4.32;2.08;;;;;;;14.54;41.88;97241.69;5136601;27;20043;-75
2022/03/14 09:16:35;;;;;;;4.53;2.15;;;;;;;14.34;41.99;97237.59;5137893;27;20043;-80
2022/03/14 09:19:01;;;;;;;8.00;2.85;;;;;;;13.93;43.67;97238.00;5136486;27;20077;-75
2022/03/14 09:21:33;;;;;;;5.43;2.20;;;;;;;13.73;43.08;97239.38;5137713;27;20113;-75
2022/03/14 09:23:59;;;;;;;9.82;2.40;;;;;;;13.55;44.20;97239.31;5137668;27;20051;-75
2022/03/14 09:26:26;;;;;;;5.30;1.95;;;;;;;13.46;44.13;97243.13;5141214;27;20046;-75
2022/03/14 09:28:54;;;;;;;8.57;2.65;;;;;;;13.55;44.61;97233.03;5138625;27;20047;-75
2022/03/14 09:31:22;;;;;;;12.43;2.60;;;;;;;13.77;43.62;97245.84;5135518;27;20050;-76
2022/03/14 09:33:52;;;;;;;5.15;1.75;;;;;;;14.12;42.68;97246.75;5136549;27;20057;-74
2022/03/14 09:36:18;;;;;;;6.07;2.50;;;;;;;14.54;41.80;97252.66;5134903;27;20469;-75
2022/03/14 09:38:45;;;;;;;4.95;2.25;;;;;;;14.83;41.63;97252.81;5136173;27;20058;-74
2022/03/14 09:41:17;;;;;;;6.80;2.80;;;;;;;14.73;40.66;97261.38;5131764;27;20054;-75
2022/03/14 09:43:46;;;;;;;6.60;2.20;;;;;;;13.89;41.41;97258.94;5135093;27;20054;-76
2022/03/14 09:46:13;;;;;;;7.43;3.00;;;;;;;14.58;40.15;97254.41;5132656;27;20043;-75
2022/03/14 09:48:53;;;;;;;8.55;2.45;;;;;;;14.14;41.66;97254.63;5134951;27;20116;-77
2022/03/14 09:51:22;;;;;;;6.85;2.53;;;;;;;13.58;41.83;97257.06;5133474;27;20057;-75
2022/03/14 09:53:49;;;;;;;6.07;2.08;;;;;;;13.25;43.10;97251.06;5134021;27;20055;-75
2022/03/14 09:56:16;;;;;;;5.93;1.95;;;;;;;13.59;43.73;97258.66;5133414;27;20043;-76
2022/03/14 09:58:44;;;;;;;9.00;3.00;;;;;;;13.69;42.89;97258.38;5135267;27;20055;-74
2022/03/14 10:01:11;;;;;;;5.97;2.42;;;;;;;13.97;42.72;97260.88;5117110;27;20052;-75
2022/03/14 10:03:38;;;;;;;9.05;2.60;;;;;;;13.25;41.95;97262.81;5113311;28;20053;-77
2022/03/14 10:06:06;;;;;;;5.03;1.77;;;;;;;13.38;42.24;97268.53;5112702;28;20062;-76
2022/03/14 10:08:32;;;;;;;6.32;2.08;;;;;;;13.57;42.05;97263.63;5113671;28;20047;-76
2022/03/14 10:10:59;;;;;;;7.00;2.08;;;;;;;13.66;41.13;97272.69;5116524;28;20580;-76
2022/03/14 10:13:26;;;;;;;5.57;1.85;;;;;;;13.96;41.52;97272.97;5114506;28;20050;-75
2022/03/14 10:15:53;;;;;;;8.23;2.88;;;;;;;13.36;41.73;97274.28;5114411;28;20051;-74
2022/03/14 10:18:19;;;;;;;8.40;2.03;;;;;;;13.37;42.86;97269.66;5113497;28;20047;-76
2022/03/14 10:21:05;;;;;;;8.50;2.42;;;;;;;13.49;42.44;97272.63;5114473;28;20047;-78
2022/03/14 10:23:39;;;;;;;7.45;2.40;;;;;;;13.62;41.90;97263.47;5113768;28;20134;-76
2022/03/14 10:26:07;;;;;;;8.13;2.45;;;;;;;13.07;42.54;97269.28;5112883;28;20062;-75
2022/03/14 10:28:35;;;;;;;11.35;2.28;;;;;;;12.96;43.14;97256.97;5114201;28;20036;-75
2022/03/14 10:31:02;;;;;;;6.82;1.90;;;;;;;12.97;42.93;97266.78;5112252;28;20481;-76
2022/03/14 10:33:31;;;;;;;7.40;2.00;;;;;;;12.80;42.48;97271.03;5113853;28;20543;-77
2022/03/14 10:36:01;;;;;;;9.77;2.20;;;;;;;12.94;42.33;97270.13;5111292;28;20052;-74
2022/03/14 10:38:28;;;;;;;11.23;2.95;;;;;;;12.95;41.80;97274.50;5109962;28;20050;-74
2022/03/14 10:40:57;;;;;;;6.95;1.90;;;;;;;13.08;42.25;97281.81;5110095;28;20050;-75
2022/03/14 10:43:25;;;;;;;11.02;2.60;;;;;;;13.09;41.70;97277.97;5108157;28;20116;-75
2022/03/14 10:45:52;;;;;;;9.90;2.55;;;;;;;12.76;42.00;97286.41;5108193;28;20054;-76
2022/03/14 10:48:35;;;;;;;7.45;2.15;;;;;;;12.38;42.93;97285.91;5107406;28;20076;-75
2022/03/14 10:51:05;;;;;;;8.80;2.22;;;;;;;12.34;43.62;97286.84;5109651;28;20047;-74
2022/03/14 10:53:34;;;;;;;10.18;2.35;;;;;;;12.37;43.49;97292.50;5108961;28;20044;-74
2022/03/14 10:56:03;;;;;;;12.68;3.22;;;;;;;12.50;43.94;97285.38;5107964;28;20048;-74
2022/03/14 10:58:33;;;;;;;11.40;2.78;;;;;;;12.88;43.48;97282.31;5107778;28;20055;-74
2022/03/14 11:01:01;;;;;;;10.82;2.70;;;;;;;12.93;43.19;97284.94;5109074;28;20139;-75
2022/03/14 11:03:29;;;;;;;9.60;3.00;;;;;;;13.15;42.67;97284.91;5110573;28;20048;-75
2022/03/14 11:05:59;;;;;;;11.88;3.00;;;;;;;13.14;42.98;97283.31;5111044;28;20051;-75
2022/03/14 11:08:26;;;;;;;8.85;2.20;;;;;;;12.88;43.28;97285.06;5109489;28;20051;-75
2022/03/14 11:10:53;;;;;;;10.63;2.58;;;;;;;13.02;43.17;97296.75;5107613;28;20044;-75
2022/03/14 11:13:21;;;;;;;14.13;3.17;;;;;;;13.29;43.46;97279.41;5106476;28;20044;-75
2022/03/14 11:15:47;;;;;;;8.23;2.28;;;;;;;13.29;41.42;97285.69;5106604;28;20489;-75
2022/03/14 11:18:14;;;;;;;13.77;3.28;;;;;;;13.43;41.32;97279.34;5106947;28;20048;-75
2022/03/14 11:20:41;;;;;;;7.50;1.95;;;;;;;13.35;40.59;97282.81;5107833;28;20050;-76
2022/03/14 11:23:07;;;;;;;11.10;2.72;;;;;;;13.45;39.72;97277.09;5107204;28;20055;-76
2022/03/14 11:25:36;;;;;;;10.32;2.15;;;;;;;13.74;39.40;97277.41;5107759;28;20176;-77
2022/03/14 11:28:03;;;;;;;12.35;2.95;;;;;;;13.34;39.98;97281.22;5106496;28;20044;-75
2022/03/14 11:30:34;;;;;;;8.82;2.20;;;;;;;13.54;40.07;97294.38;5107636;28;20048;-74